sensor_id;sensor_type;location;lat;lon;timestamp;temperature;humidity
62583;DHT22;48641;51.676;5.808;2023-07-13T00:00:29;25.30;51.70
62583;DHT22;48641;51.676;5.808;2023-07-13T00:02:56;25.30;52.10
62583;DHT22;48641;51.676;5.808;2023-07-13T00:05:23;25.30;51.60
62583;DHT22;48641;51.676;5.808;2023-07-13T00:07:50;25.30;51.60
62583;DHT22;48641;51.676;5.808;2023-07-13T00:10:16;25.30;51.60
62583;DHT22;48641;51.676;5.808;2023-07-13T00:12:43;25.30;51.60
62583;DHT22;48641;51.676;5.808;2023-07-13T00:15:21;25.30;51.70
62583;DHT22;48641;51.676;5.808;2023-07-13T00:17:57;25.30;51.50
62583;DHT22;48641;51.676;5.808;2023-07-13T00:20:24;25.30;51.60
62583;DHT22;48641;51.676;5.808;2023-07-13T00:22:51;25.20;51.50
62583;DHT22;48641;51.676;5.808;2023-07-13T00:25:21;25.20;51.60
62583;DHT22;48641;51.676;5.808;2023-07-13T00:27:49;25.20;51.50
62583;DHT22;48641;51.676;5.808;2023-07-13T00:30:18;25.20;51.50
62583;DHT22;48641;51.676;5.808;2023-07-13T00:32:43;25.30;51.60
62583;DHT22;48641;51.676;5.808;2023-07-13T00:35:09;25.30;51.60
62583;DHT22;48641;51.676;5.808;2023-07-13T00:37:35;25.30;51.60
62583;DHT22;48641;51.676;5.808;2023-07-13T00:40:05;25.30;51.60
62583;DHT22;48641;51.676;5.808;2023-07-13T00:42:31;25.30;51.60
62583;DHT22;48641;51.676;5.808;2023-07-13T00:47:39;25.30;51.50
62583;DHT22;48641;51.676;5.808;2023-07-13T00:50:07;25.20;51.50
62583;DHT22;48641;51.676;5.808;2023-07-13T00:52:36;25.20;51.50
62583;DHT22;48641;51.676;5.808;2023-07-13T00:55:03;25.20;51.50
62583;DHT22;48641;51.676;5.808;2023-07-13T00:57:29;25.20;51.50
62583;DHT22;48641;51.676;5.808;2023-07-13T00:59:58;25.10;51.50
62583;DHT22;48641;51.676;5.808;2023-07-13T01:02:24;25.10;51.40
62583;DHT22;48641;51.676;5.808;2023-07-13T01:04:50;25.10;51.60
62583;DHT22;48641;51.676;5.808;2023-07-13T01:07:16;25.10;51.70
62583;DHT22;48641;51.676;5.808;2023-07-13T01:09:42;25.10;51.70
62583;DHT22;48641;51.676;5.808;2023-07-13T01:12:08;25.10;51.60
62583;DHT22;48641;51.676;5.808;2023-07-13T01:14:34;25.10;51.50
62583;DHT22;48641;51.676;5.808;2023-07-13T01:16:59;25.10;51.50
62583;DHT22;48641;51.676;5.808;2023-07-13T01:22:17;25.10;52.40
62583;DHT22;48641;51.676;5.808;2023-07-13T01:24:45;25.10;51.50
62583;DHT22;48641;51.676;5.808;2023-07-13T01:27:14;25.10;51.50
62583;DHT22;48641;51.676;5.808;2023-07-13T01:29:43;25.10;51.50
62583;DHT22;48641;51.676;5.808;2023-07-13T01:32:10;25.10;51.60
62583;DHT22;48641;51.676;5.808;2023-07-13T01:34:37;25.10;51.60
62583;DHT22;48641;51.676;5.808;2023-07-13T01:37:04;25.10;51.50
62583;DHT22;48641;51.676;5.808;2023-07-13T01:39:30;25.10;51.50
62583;DHT22;48641;51.676;5.808;2023-07-13T01:41:56;25.10;51.50
62583;DHT22;48641;51.676;5.808;2023-07-13T01:44:21;25.10;51.50
62583;DHT22;48641;51.676;5.808;2023-07-13T01:46:47;25.10;51.50
62583;DHT22;48641;51.676;5.808;2023-07-13T01:49:12;25.10;51.40
62583;DHT22;48641;51.676;5.808;2023-07-13T01:51:38;25.10;51.30
62583;DHT22;48641;51.676;5.808;2023-07-13T01:54:04;25.10;51.30
62583;DHT22;48641;51.676;5.808;2023-07-13T01:56:30;25.10;51.40
62583;DHT22;48641;51.676;5.808;2023-07-13T01:58:55;25.10;51.40
62583;DHT22;48641;51.676;5.808;2023-07-13T02:01:22;25.00;51.30
62583;DHT22;48641;51.676;5.808;2023-07-13T02:03:47;25.00;51.20
62583;DHT22;48641;51.676;5.808;2023-07-13T02:06:14;25.00;51.30
62583;DHT22;48641;51.676;5.808;2023-07-13T02:08:41;25.00;51.30
62583;DHT22;48641;51.676;5.808;2023-07-13T02:11:08;25.00;51.30
62583;DHT22;48641;51.676;5.808;2023-07-13T02:13:34;25.00;51.20
62583;DHT22;48641;51.676;5.808;2023-07-13T02:16:00;25.10;51.30
62583;DHT22;48641;51.676;5.808;2023-07-13T02:18:26;25.00;51.20
62583;DHT22;48641;51.676;5.808;2023-07-13T02:20:52;25.00;51.20
62583;DHT22;48641;51.676;5.808;2023-07-13T02:23:18;25.00;51.20
62583;DHT22;48641;51.676;5.808;2023-07-13T02:25:44;25.00;51.20
62583;DHT22;48641;51.676;5.808;2023-07-13T02:28:10;25.00;51.20
62583;DHT22;48641;51.676;5.808;2023-07-13T02:30:36;25.00;51.20
62583;DHT22;48641;51.676;5.808;2023-07-13T02:33:02;25.00;51.20
62583;DHT22;48641;51.676;5.808;2023-07-13T02:35:28;25.00;51.20
62583;DHT22;48641;51.676;5.808;2023-07-13T02:37:53;25.00;51.20
62583;DHT22;48641;51.676;5.808;2023-07-13T02:40:19;25.00;51.20
62583;DHT22;48641;51.676;5.808;2023-07-13T02:42:44;24.90;51.20
62583;DHT22;48641;51.676;5.808;2023-07-13T02:45:10;24.90;51.20
62583;DHT22;48641;51.676;5.808;2023-07-13T02:47:38;24.90;51.20
62583;DHT22;48641;51.676;5.808;2023-07-13T02:50:04;24.90;51.20
62583;DHT22;48641;51.676;5.808;2023-07-13T02:52:29;24.90;51.20
62583;DHT22;48641;51.676;5.808;2023-07-13T02:54:55;25.00;51.20
62583;DHT22;48641;51.676;5.808;2023-07-13T02:57:21;24.90;51.10
62583;DHT22;48641;51.676;5.808;2023-07-13T02:59:46;24.90;51.20
62583;DHT22;48641;51.676;5.808;2023-07-13T03:02:12;25.00;51.20
62583;DHT22;48641;51.676;5.808;2023-07-13T03:04:38;24.90;51.20
62583;DHT22;48641;51.676;5.808;2023-07-13T03:07:06;24.90;51.20
62583;DHT22;48641;51.676;5.808;2023-07-13T03:09:33;24.90;51.20
62583;DHT22;48641;51.676;5.808;2023-07-13T03:11:59;24.90;51.20
62583;DHT22;48641;51.676;5.808;2023-07-13T03:14:25;24.90;51.20
62583;DHT22;48641;51.676;5.808;2023-07-13T03:16:51;24.90;51.20
62583;DHT22;48641;51.676;5.808;2023-07-13T03:19:18;24.90;51.20
62583;DHT22;48641;51.676;5.808;2023-07-13T03:21:44;24.90;51.20
62583;DHT22;48641;51.676;5.808;2023-07-13T03:24:09;24.90;51.20
62583;DHT22;48641;51.676;5.808;2023-07-13T03:26:35;24.90;51.20
62583;DHT22;48641;51.676;5.808;2023-07-13T03:29:01;24.90;51.20
62583;DHT22;48641;51.676;5.808;2023-07-13T03:31:29;24.90;51.10
62583;DHT22;48641;51.676;5.808;2023-07-13T03:33:56;24.90;51.10
62583;DHT22;48641;51.676;5.808;2023-07-13T03:36:25;24.90;51.10
62583;DHT22;48641;51.676;5.808;2023-07-13T03:38:53;24.90;51.10
62583;DHT22;48641;51.676;5.808;2023-07-13T03:41:20;24.90;51.10
62583;DHT22;48641;51.676;5.808;2023-07-13T03:43:46;24.80;51.10
62583;DHT22;48641;51.676;5.808;2023-07-13T03:46:15;24.80;51.10
62583;DHT22;48641;51.676;5.808;2023-07-13T03:48:43;24.80;51.20
62583;DHT22;48641;51.676;5.808;2023-07-13T03:51:10;24.70;51.30
62583;DHT22;48641;51.676;5.808;2023-07-13T03:53:39;24.70;51.30
62583;DHT22;48641;51.676;5.808;2023-07-13T03:56:05;24.70;51.30
62583;DHT22;48641;51.676;5.808;2023-07-13T03:58:36;24.70;51.30
62583;DHT22;48641;51.676;5.808;2023-07-13T04:01:04;24.70;51.20
62583;DHT22;48641;51.676;5.808;2023-07-13T04:03:31;24.80;51.30
62583;DHT22;48641;51.676;5.808;2023-07-13T04:05:58;24.70;51.20
62583;DHT22;48641;51.676;5.808;2023-07-13T04:08:29;24.70;51.10
62583;DHT22;48641;51.676;5.808;2023-07-13T04:10:56;24.70;52.10
62583;DHT22;48641;51.676;5.808;2023-07-13T04:13:22;24.70;51.10
62583;DHT22;48641;51.676;5.808;2023-07-13T04:15:49;24.70;51.10
62583;DHT22;48641;51.676;5.808;2023-07-13T04:18:14;24.70;51.10
62583;DHT22;48641;51.676;5.808;2023-07-13T04:20:40;24.70;51.00
62583;DHT22;48641;51.676;5.808;2023-07-13T04:23:06;24.70;51.00
62583;DHT22;48641;51.676;5.808;2023-07-13T04:25:31;24.70;51.10
62583;DHT22;48641;51.676;5.808;2023-07-13T04:27:57;24.70;51.10
62583;DHT22;48641;51.676;5.808;2023-07-13T04:30:23;24.70;51.00
62583;DHT22;48641;51.676;5.808;2023-07-13T04:32:51;24.70;51.10
62583;DHT22;48641;51.676;5.808;2023-07-13T04:35:21;24.70;51.10
62583;DHT22;48641;51.676;5.808;2023-07-13T04:37:50;24.70;51.10
62583;DHT22;48641;51.676;5.808;2023-07-13T04:40:17;24.70;51.00
62583;DHT22;48641;51.676;5.808;2023-07-13T04:42:44;24.70;51.00
62583;DHT22;48641;51.676;5.808;2023-07-13T04:45:10;24.70;51.00
62583;DHT22;48641;51.676;5.808;2023-07-13T04:47:36;24.70;51.00
62583;DHT22;48641;51.676;5.808;2023-07-13T04:50:02;24.70;51.00
62583;DHT22;48641;51.676;5.808;2023-07-13T04:52:28;24.70;51.00
62583;DHT22;48641;51.676;5.808;2023-07-13T04:54:53;24.70;51.00
62583;DHT22;48641;51.676;5.808;2023-07-13T04:57:19;24.70;51.00
62583;DHT22;48641;51.676;5.808;2023-07-13T04:59:45;24.70;51.00
62583;DHT22;48641;51.676;5.808;2023-07-13T05:02:11;24.70;51.00
62583;DHT22;48641;51.676;5.808;2023-07-13T05:04:36;24.60;50.90
62583;DHT22;48641;51.676;5.808;2023-07-13T05:07:02;24.60;50.90
62583;DHT22;48641;51.676;5.808;2023-07-13T05:09:28;24.60;51.00
62583;DHT22;48641;51.676;5.808;2023-07-13T05:11:54;24.60;51.00
62583;DHT22;48641;51.676;5.808;2023-07-13T05:14:19;24.60;51.00
62583;DHT22;48641;51.676;5.808;2023-07-13T05:16:45;24.60;51.00
62583;DHT22;48641;51.676;5.808;2023-07-13T05:19:12;24.60;50.90
62583;DHT22;48641;51.676;5.808;2023-07-13T05:21:37;24.60;51.00
62583;DHT22;48641;51.676;5.808;2023-07-13T05:24:03;24.60;51.00
62583;DHT22;48641;51.676;5.808;2023-07-13T05:26:29;24.60;50.90
62583;DHT22;48641;51.676;5.808;2023-07-13T05:28:54;24.60;51.00
62583;DHT22;48641;51.676;5.808;2023-07-13T05:31:20;24.60;51.00
62583;DHT22;48641;51.676;5.808;2023-07-13T05:33:46;24.60;51.00
62583;DHT22;48641;51.676;5.808;2023-07-13T05:36:11;24.60;51.00
62583;DHT22;48641;51.676;5.808;2023-07-13T05:38:37;24.50;50.90
62583;DHT22;48641;51.676;5.808;2023-07-13T05:41:03;24.50;50.90
62583;DHT22;48641;51.676;5.808;2023-07-13T05:43:29;24.50;51.00
62583;DHT22;48641;51.676;5.808;2023-07-13T05:45:57;24.50;51.10
62583;DHT22;48641;51.676;5.808;2023-07-13T05:48:23;24.50;51.00
62583;DHT22;48641;51.676;5.808;2023-07-13T05:50:49;24.50;50.90
62583;DHT22;48641;51.676;5.808;2023-07-13T05:53:15;24.50;51.00
62583;DHT22;48641;51.676;5.808;2023-07-13T05:55:42;24.50;51.90
62583;DHT22;48641;51.676;5.808;2023-07-13T05:58:08;24.50;51.00
62583;DHT22;48641;51.676;5.808;2023-07-13T06:00:34;24.50;51.00
62583;DHT22;48641;51.676;5.808;2023-07-13T06:03:00;24.50;51.00
62583;DHT22;48641;51.676;5.808;2023-07-13T06:05:25;24.50;51.00
62583;DHT22;48641;51.676;5.808;2023-07-13T06:07:52;24.50;51.10
62583;DHT22;48641;51.676;5.808;2023-07-13T06:10:18;24.50;51.10
62583;DHT22;48641;51.676;5.808;2023-07-13T06:12:43;24.50;51.00
62583;DHT22;48641;51.676;5.808;2023-07-13T06:15:09;24.50;51.00
62583;DHT22;48641;51.676;5.808;2023-07-13T06:17:35;24.50;51.10
62583;DHT22;48641;51.676;5.808;2023-07-13T06:20:01;24.50;51.10
62583;DHT22;48641;51.676;5.808;2023-07-13T06:22:27;24.50;51.10
62583;DHT22;48641;51.676;5.808;2023-07-13T06:24:53;24.50;51.10
62583;DHT22;48641;51.676;5.808;2023-07-13T06:27:19;24.50;51.10
62583;DHT22;48641;51.676;5.808;2023-07-13T06:29:44;24.50;51.10
62583;DHT22;48641;51.676;5.808;2023-07-13T06:32:10;24.50;51.10
62583;DHT22;48641;51.676;5.808;2023-07-13T06:34:36;24.50;51.10
62583;DHT22;48641;51.676;5.808;2023-07-13T06:37:02;24.50;51.10
62583;DHT22;48641;51.676;5.808;2023-07-13T06:39:27;24.50;51.00
62583;DHT22;48641;51.676;5.808;2023-07-13T06:41:53;24.50;51.10
62583;DHT22;48641;51.676;5.808;2023-07-13T06:44:18;24.50;51.10
62583;DHT22;48641;51.676;5.808;2023-07-13T06:46:44;24.40;51.10
62583;DHT22;48641;51.676;5.808;2023-07-13T06:49:10;24.40;51.10
62583;DHT22;48641;51.676;5.808;2023-07-13T06:51:36;24.40;51.10
62583;DHT22;48641;51.676;5.808;2023-07-13T06:54:02;24.40;51.00
62583;DHT22;48641;51.676;5.808;2023-07-13T06:56:28;24.40;51.00
62583;DHT22;48641;51.676;5.808;2023-07-13T06:58:54;24.40;51.00
62583;DHT22;48641;51.676;5.808;2023-07-13T07:01:20;24.40;51.00
62583;DHT22;48641;51.676;5.808;2023-07-13T07:03:45;24.40;51.00
62583;DHT22;48641;51.676;5.808;2023-07-13T07:06:18;24.40;51.00
62583;DHT22;48641;51.676;5.808;2023-07-13T07:08:44;24.40;51.00
62583;DHT22;48641;51.676;5.808;2023-07-13T07:11:13;24.40;51.00
62583;DHT22;48641;51.676;5.808;2023-07-13T07:13:39;24.40;51.10
62583;DHT22;48641;51.676;5.808;2023-07-13T07:16:05;24.40;51.40
62583;DHT22;48641;51.676;5.808;2023-07-13T07:18:32;24.40;51.50
62583;DHT22;48641;51.676;5.808;2023-07-13T07:20:57;24.40;51.50
62583;DHT22;48641;51.676;5.808;2023-07-13T07:23:23;24.40;51.50
62583;DHT22;48641;51.676;5.808;2023-07-13T07:25:49;24.40;51.50
62583;DHT22;48641;51.676;5.808;2023-07-13T07:28:15;24.40;51.50
62583;DHT22;48641;51.676;5.808;2023-07-13T07:30:47;24.40;51.50
62583;DHT22;48641;51.676;5.808;2023-07-13T07:33:14;24.40;51.50
62583;DHT22;48641;51.676;5.808;2023-07-13T07:35:40;24.40;51.50
62583;DHT22;48641;51.676;5.808;2023-07-13T07:38:06;24.40;51.60
62583;DHT22;48641;51.676;5.808;2023-07-13T07:40:31;24.40;51.50
62583;DHT22;48641;51.676;5.808;2023-07-13T07:42:58;24.40;51.60
62583;DHT22;48641;51.676;5.808;2023-07-13T07:45:26;24.40;51.50
62583;DHT22;48641;51.676;5.808;2023-07-13T07:47:52;24.40;51.60
62583;DHT22;48641;51.676;5.808;2023-07-13T07:50:19;24.40;51.60
62583;DHT22;48641;51.676;5.808;2023-07-13T07:52:45;24.40;51.50
62583;DHT22;48641;51.676;5.808;2023-07-13T07:55:11;24.30;51.50
62583;DHT22;48641;51.676;5.808;2023-07-13T07:57:36;24.30;51.50
62583;DHT22;48641;51.676;5.808;2023-07-13T08:00:02;24.30;51.50
62583;DHT22;48641;51.676;5.808;2023-07-13T08:02:28;24.30;51.60
62583;DHT22;48641;51.676;5.808;2023-07-13T08:04:54;24.30;51.70
62583;DHT22;48641;51.676;5.808;2023-07-13T08:07:19;24.30;51.70
62583;DHT22;48641;51.676;5.808;2023-07-13T08:09:45;24.30;52.70
62583;DHT22;48641;51.676;5.808;2023-07-13T08:12:12;24.30;51.80
62583;DHT22;48641;51.676;5.808;2023-07-13T08:14:37;24.30;51.70
62583;DHT22;48641;51.676;5.808;2023-07-13T08:17:04;24.30;51.80
62583;DHT22;48641;51.676;5.808;2023-07-13T08:19:30;24.30;51.70
62583;DHT22;48641;51.676;5.808;2023-07-13T08:21:56;24.30;51.70
62583;DHT22;48641;51.676;5.808;2023-07-13T08:24:23;24.30;51.70
62583;DHT22;48641;51.676;5.808;2023-07-13T08:26:50;24.30;51.90
62583;DHT22;48641;51.676;5.808;2023-07-13T08:29:15;24.20;51.70
62583;DHT22;48641;51.676;5.808;2023-07-13T08:31:41;24.30;51.70
62583;DHT22;48641;51.676;5.808;2023-07-13T08:34:07;24.20;51.70
62583;DHT22;48641;51.676;5.808;2023-07-13T08:36:32;24.20;51.80
62583;DHT22;48641;51.676;5.808;2023-07-13T08:38:58;24.20;51.80
62583;DHT22;48641;51.676;5.808;2023-07-13T08:41:24;24.20;51.80
62583;DHT22;48641;51.676;5.808;2023-07-13T08:43:57;24.20;51.80
62583;DHT22;48641;51.676;5.808;2023-07-13T08:46:36;24.20;51.80
62583;DHT22;48641;51.676;5.808;2023-07-13T08:49:05;24.20;51.80
62583;DHT22;48641;51.676;5.808;2023-07-13T08:51:38;24.20;51.80
62583;DHT22;48641;51.676;5.808;2023-07-13T08:57:15;24.20;51.80
62583;DHT22;48641;51.676;5.808;2023-07-13T08:59:41;24.20;51.90
62583;DHT22;48641;51.676;5.808;2023-07-13T09:04:50;24.20;51.80
62583;DHT22;48641;51.676;5.808;2023-07-13T09:10:23;24.20;51.80
62583;DHT22;48641;51.676;5.808;2023-07-13T09:15:43;24.10;51.70
62583;DHT22;48641;51.676;5.808;2023-07-13T09:18:35;24.10;51.60
62583;DHT22;48641;51.676;5.808;2023-07-13T09:21:15;24.10;51.50
62583;DHT22;48641;51.676;5.808;2023-07-13T09:23:41;24.10;51.70
62583;DHT22;48641;51.676;5.808;2023-07-13T09:28:44;24.10;51.50
62583;DHT22;48641;51.676;5.808;2023-07-13T09:31:28;24.10;51.40
62583;DHT22;48641;51.676;5.808;2023-07-13T09:33:56;24.10;51.20
62583;DHT22;48641;51.676;5.808;2023-07-13T09:42:18;24.20;51.30
62583;DHT22;48641;51.676;5.808;2023-07-13T09:47:31;24.10;51.30
62583;DHT22;48641;51.676;5.808;2023-07-13T09:50:07;24.10;51.20
62583;DHT22;48641;51.676;5.808;2023-07-13T09:55:27;24.10;51.00
62583;DHT22;48641;51.676;5.808;2023-07-13T09:57:54;24.10;51.00
62583;DHT22;48641;51.676;5.808;2023-07-13T10:00:26;24.10;51.20
62583;DHT22;48641;51.676;5.808;2023-07-13T10:03:00;24.10;51.20
62583;DHT22;48641;51.676;5.808;2023-07-13T10:05:26;24.10;51.10
62583;DHT22;48641;51.676;5.808;2023-07-13T10:07:55;24.10;50.90
62583;DHT22;48641;51.676;5.808;2023-07-13T10:10:22;24.10;50.80
62583;DHT22;48641;51.676;5.808;2023-07-13T10:12:49;24.10;50.80
62583;DHT22;48641;51.676;5.808;2023-07-13T10:15:22;24.10;50.70
62583;DHT22;48641;51.676;5.808;2023-07-13T10:17:51;24.10;50.70
62583;DHT22;48641;51.676;5.808;2023-07-13T10:20:17;24.10;50.70
62583;DHT22;48641;51.676;5.808;2023-07-13T10:23:02;24.10;50.70
62583;DHT22;48641;51.676;5.808;2023-07-13T10:25:34;24.10;50.60
62583;DHT22;48641;51.676;5.808;2023-07-13T10:30:42;24.10;50.40
62583;DHT22;48641;51.676;5.808;2023-07-13T10:33:12;24.10;50.30
62583;DHT22;48641;51.676;5.808;2023-07-13T10:35:42;24.10;50.40
62583;DHT22;48641;51.676;5.808;2023-07-13T10:38:18;24.10;50.30
62583;DHT22;48641;51.676;5.808;2023-07-13T10:40:57;24.10;50.00
62583;DHT22;48641;51.676;5.808;2023-07-13T10:43:28;24.10;49.70
62583;DHT22;48641;51.676;5.808;2023-07-13T10:45:57;24.10;49.50
62583;DHT22;48641;51.676;5.808;2023-07-13T10:48:24;24.10;49.80
62583;DHT22;48641;51.676;5.808;2023-07-13T10:50:52;24.10;49.70
62583;DHT22;48641;51.676;5.808;2023-07-13T10:53:28;24.10;49.70
62583;DHT22;48641;51.676;5.808;2023-07-13T10:56:01;24.20;49.80
62583;DHT22;48641;51.676;5.808;2023-07-13T10:58:38;24.10;49.80
62583;DHT22;48641;51.676;5.808;2023-07-13T11:01:16;24.20;49.90
62583;DHT22;48641;51.676;5.808;2023-07-13T11:04:00;24.20;49.70
62583;DHT22;48641;51.676;5.808;2023-07-13T11:09:36;24.20;50.10
62583;DHT22;48641;51.676;5.808;2023-07-13T11:17:34;24.20;50.20
62583;DHT22;48641;51.676;5.808;2023-07-13T11:25:35;24.20;50.30
62583;DHT22;48641;51.676;5.808;2023-07-13T11:35:51;24.20;50.70
62583;DHT22;48641;51.676;5.808;2023-07-13T11:38:40;24.20;50.80
62583;DHT22;48641;51.676;5.808;2023-07-13T11:41:17;24.20;50.70
62583;DHT22;48641;51.676;5.808;2023-07-13T11:43:45;24.20;51.00
62583;DHT22;48641;51.676;5.808;2023-07-13T11:46:29;24.20;51.00
62583;DHT22;48641;51.676;5.808;2023-07-13T11:48:55;24.20;51.10
62583;DHT22;48641;51.676;5.808;2023-07-13T11:51:32;24.20;51.30
62583;DHT22;48641;51.676;5.808;2023-07-13T11:54:03;24.20;51.30
62583;DHT22;48641;51.676;5.808;2023-07-13T11:56:29;24.20;51.30
62583;DHT22;48641;51.676;5.808;2023-07-13T11:58:56;24.20;51.50
62583;DHT22;48641;51.676;5.808;2023-07-13T12:01:31;24.20;51.80
62583;DHT22;48641;51.676;5.808;2023-07-13T12:04:02;24.30;51.70
62583;DHT22;48641;51.676;5.808;2023-07-13T12:06:30;24.20;51.60
62583;DHT22;48641;51.676;5.808;2023-07-13T12:08:59;24.20;51.80
62583;DHT22;48641;51.676;5.808;2023-07-13T12:11:25;24.20;51.70
62583;DHT22;48641;51.676;5.808;2023-07-13T12:13:50;24.20;51.70
62583;DHT22;48641;51.676;5.808;2023-07-13T12:16:29;24.20;51.70
62583;DHT22;48641;51.676;5.808;2023-07-13T12:18:56;24.20;52.10
62583;DHT22;48641;51.676;5.808;2023-07-13T12:21:30;24.20;52.30
62583;DHT22;48641;51.676;5.808;2023-07-13T12:23:57;24.30;52.30
62583;DHT22;48641;51.676;5.808;2023-07-13T12:26:22;24.30;52.30
62583;DHT22;48641;51.676;5.808;2023-07-13T12:28:53;24.30;52.20
62583;DHT22;48641;51.676;5.808;2023-07-13T12:31:26;24.30;52.10
62583;DHT22;48641;51.676;5.808;2023-07-13T12:34:05;24.30;52.20
62583;DHT22;48641;51.676;5.808;2023-07-13T12:36:33;24.30;52.20
62583;DHT22;48641;51.676;5.808;2023-07-13T12:41:48;24.30;52.20
62583;DHT22;48641;51.676;5.808;2023-07-13T12:44:23;24.30;52.10
62583;DHT22;48641;51.676;5.808;2023-07-13T12:47:03;24.30;52.40
62583;DHT22;48641;51.676;5.808;2023-07-13T12:49:32;24.30;52.30
62583;DHT22;48641;51.676;5.808;2023-07-13T12:52:02;24.30;52.80
62583;DHT22;48641;51.676;5.808;2023-07-13T12:54:29;24.40;52.80
62583;DHT22;48641;51.676;5.808;2023-07-13T12:56:57;24.40;52.90
62583;DHT22;48641;51.676;5.808;2023-07-13T12:59:26;24.40;54.10
62583;DHT22;48641;51.676;5.808;2023-07-13T13:01:54;24.40;53.70
62583;DHT22;48641;51.676;5.808;2023-07-13T13:04:20;24.40;53.80
62583;DHT22;48641;51.676;5.808;2023-07-13T13:06:48;24.50;53.90
62583;DHT22;48641;51.676;5.808;2023-07-13T13:09:16;24.50;53.60
62583;DHT22;48641;51.676;5.808;2023-07-13T13:11:42;24.50;53.60
62583;DHT22;48641;51.676;5.808;2023-07-13T13:14:08;24.50;53.40
62583;DHT22;48641;51.676;5.808;2023-07-13T13:16:50;24.50;53.30
62583;DHT22;48641;51.676;5.808;2023-07-13T13:19:25;24.50;53.10
62583;DHT22;48641;51.676;5.808;2023-07-13T13:21:53;24.50;53.10
62583;DHT22;48641;51.676;5.808;2023-07-13T13:24:25;24.50;53.00
62583;DHT22;48641;51.676;5.808;2023-07-13T13:26:52;24.50;53.00
62583;DHT22;48641;51.676;5.808;2023-07-13T13:29:21;24.50;53.00
62583;DHT22;48641;51.676;5.808;2023-07-13T13:31:50;24.50;52.90
62583;DHT22;48641;51.676;5.808;2023-07-13T13:34:17;24.50;52.90
62583;DHT22;48641;51.676;5.808;2023-07-13T13:36:44;24.50;52.80
62583;DHT22;48641;51.676;5.808;2023-07-13T13:39:23;24.50;52.90
62583;DHT22;48641;51.676;5.808;2023-07-13T13:41:53;24.60;53.00
62583;DHT22;48641;51.676;5.808;2023-07-13T13:44:20;24.60;52.90
62583;DHT22;48641;51.676;5.808;2023-07-13T13:46:48;24.60;53.00
62583;DHT22;48641;51.676;5.808;2023-07-13T13:49:17;24.60;52.90
62583;DHT22;48641;51.676;5.808;2023-07-13T13:51:43;24.60;52.80
62583;DHT22;48641;51.676;5.808;2023-07-13T13:54:14;24.50;52.60
62583;DHT22;48641;51.676;5.808;2023-07-13T13:56:42;24.50;52.90
62583;DHT22;48641;51.676;5.808;2023-07-13T13:59:09;24.50;53.00
62583;DHT22;48641;51.676;5.808;2023-07-13T14:01:41;24.50;52.90
62583;DHT22;48641;51.676;5.808;2023-07-13T14:04:17;24.50;52.80
62583;DHT22;48641;51.676;5.808;2023-07-13T14:06:43;24.50;52.70
62583;DHT22;48641;51.676;5.808;2023-07-13T14:09:15;24.50;52.70
62583;DHT22;48641;51.676;5.808;2023-07-13T14:11:42;24.50;52.60
62583;DHT22;48641;51.676;5.808;2023-07-13T14:14:14;24.50;52.60
62583;DHT22;48641;51.676;5.808;2023-07-13T14:16:41;24.50;52.40
62583;DHT22;48641;51.676;5.808;2023-07-13T14:19:14;24.50;52.50
62583;DHT22;48641;51.676;5.808;2023-07-13T14:21:40;24.50;52.40
62583;DHT22;48641;51.676;5.808;2023-07-13T14:24:06;24.50;52.50
62583;DHT22;48641;51.676;5.808;2023-07-13T14:26:39;24.50;52.40
62583;DHT22;48641;51.676;5.808;2023-07-13T14:29:11;24.50;52.40
62583;DHT22;48641;51.676;5.808;2023-07-13T14:31:38;24.50;52.40
62583;DHT22;48641;51.676;5.808;2023-07-13T14:34:04;24.50;52.40
62583;DHT22;48641;51.676;5.808;2023-07-13T14:36:33;24.50;52.40
62583;DHT22;48641;51.676;5.808;2023-07-13T14:39:05;24.50;52.40
62583;DHT22;48641;51.676;5.808;2023-07-13T14:41:34;24.50;52.40
62583;DHT22;48641;51.676;5.808;2023-07-13T14:43:59;24.50;52.40
62583;DHT22;48641;51.676;5.808;2023-07-13T14:46:34;24.50;52.40
62583;DHT22;48641;51.676;5.808;2023-07-13T14:49:06;24.50;52.40
62583;DHT22;48641;51.676;5.808;2023-07-13T14:51:35;24.50;52.40
62583;DHT22;48641;51.676;5.808;2023-07-13T14:54:04;24.50;52.40
62583;DHT22;48641;51.676;5.808;2023-07-13T14:56:30;24.50;52.40
62583;DHT22;48641;51.676;5.808;2023-07-13T14:58:56;24.50;52.50
62583;DHT22;48641;51.676;5.808;2023-07-13T15:01:22;24.50;52.40
62583;DHT22;48641;51.676;5.808;2023-07-13T15:03:50;24.50;52.40
62583;DHT22;48641;51.676;5.808;2023-07-13T15:06:18;24.50;52.40
62583;DHT22;48641;51.676;5.808;2023-07-13T15:08:45;24.50;52.40
62583;DHT22;48641;51.676;5.808;2023-07-13T15:11:12;24.50;52.40
62583;DHT22;48641;51.676;5.808;2023-07-13T15:13:39;24.50;52.40
62583;DHT22;48641;51.676;5.808;2023-07-13T15:16:14;24.50;52.40
62583;DHT22;48641;51.676;5.808;2023-07-13T15:18:40;24.50;53.40
62583;DHT22;48641;51.676;5.808;2023-07-13T15:21:10;24.50;52.40
62583;DHT22;48641;51.676;5.808;2023-07-13T15:23:38;24.50;52.40
62583;DHT22;48641;51.676;5.808;2023-07-13T15:26:04;24.50;52.40
62583;DHT22;48641;51.676;5.808;2023-07-13T15:28:29;24.50;52.40
62583;DHT22;48641;51.676;5.808;2023-07-13T15:30:55;24.50;52.40
62583;DHT22;48641;51.676;5.808;2023-07-13T15:33:26;24.50;51.60
62583;DHT22;48641;51.676;5.808;2023-07-13T15:35:53;24.50;51.70
62583;DHT22;48641;51.676;5.808;2023-07-13T15:38:20;24.50;51.60
62583;DHT22;48641;51.676;5.808;2023-07-13T15:40:47;24.50;51.60
62583;DHT22;48641;51.676;5.808;2023-07-13T15:43:15;24.60;51.60
62583;DHT22;48641;51.676;5.808;2023-07-13T15:45:41;24.50;51.50
62583;DHT22;48641;51.676;5.808;2023-07-13T15:48:20;24.60;51.50
62583;DHT22;48641;51.676;5.808;2023-07-13T15:50:47;24.60;51.60
62583;DHT22;48641;51.676;5.808;2023-07-13T15:53:19;24.50;51.60
62583;DHT22;48641;51.676;5.808;2023-07-13T15:55:45;24.50;51.70
62583;DHT22;48641;51.676;5.808;2023-07-13T15:58:12;24.50;51.70
62583;DHT22;48641;51.676;5.808;2023-07-13T16:00:39;24.50;51.80
62583;DHT22;48641;51.676;5.808;2023-07-13T16:03:06;24.50;51.80
62583;DHT22;48641;51.676;5.808;2023-07-13T16:05:31;24.50;51.80
62583;DHT22;48641;51.676;5.808;2023-07-13T16:07:58;24.60;51.90
62583;DHT22;48641;51.676;5.808;2023-07-13T16:10:37;24.60;51.90
62583;DHT22;48641;51.676;5.808;2023-07-13T16:13:04;24.60;51.70
62583;DHT22;48641;51.676;5.808;2023-07-13T16:15:33;24.60;51.80
62583;DHT22;48641;51.676;5.808;2023-07-13T16:17:58;24.60;51.80
62583;DHT22;48641;51.676;5.808;2023-07-13T16:20:24;24.60;51.80
62583;DHT22;48641;51.676;5.808;2023-07-13T16:22:53;24.60;51.80
62583;DHT22;48641;51.676;5.808;2023-07-13T16:25:22;24.60;51.80
62583;DHT22;48641;51.676;5.808;2023-07-13T16:27:49;24.60;51.90
62583;DHT22;48641;51.676;5.808;2023-07-13T16:30:17;24.50;51.80
62583;DHT22;48641;51.676;5.808;2023-07-13T16:32:44;24.50;52.10